createdAt,value
2017-09-28T00:01:35.746Z,15.50
2017-09-28T00:04:03.303Z,15.30
2017-09-28T00:06:30.906Z,15.40
2017-09-28T00:08:59.225Z,15.20
2017-09-28T00:11:26.782Z,15.20
2017-09-28T00:13:54.366Z,15.30
2017-09-28T00:16:21.922Z,15.20
2017-09-28T00:18:49.479Z,15.30
2017-09-28T00:21:17.046Z,15.20
2017-09-28T00:23:44.601Z,15.30
2017-09-28T00:26:12.182Z,15.20
2017-09-28T00:28:39.745Z,15.20
2017-09-28T00:31:07.302Z,14.90
2017-09-28T00:33:34.862Z,15.00
2017-09-28T00:36:02.423Z,15.10
2017-09-28T00:38:30.778Z,15.00
2017-09-28T00:40:58.337Z,15.00
2017-09-28T00:43:25.899Z,15.10
2017-09-28T00:45:53.465Z,15.20
2017-09-28T00:48:21.022Z,15.20
2017-09-28T00:50:48.613Z,15.10
2017-09-28T00:53:16.933Z,14.90
2017-09-28T00:55:44.494Z,14.90
2017-09-28T00:58:12.057Z,14.90
2017-09-28T01:00:39.630Z,15.00
2017-09-28T01:03:07.220Z,15.00
2017-09-28T01:05:35.543Z,15.10
2017-09-28T01:08:03.098Z,15.10
2017-09-28T01:10:30.653Z,15.10
2017-09-28T01:12:58.212Z,15.10
2017-09-28T01:15:25.801Z,15.10
2017-09-28T01:17:53.354Z,14.90
2017-09-28T01:20:20.912Z,14.90
2017-09-28T01:22:48.473Z,14.80
2017-09-28T01:25:16.035Z,14.90
2017-09-28T01:27:43.621Z,14.90
2017-09-28T01:30:11.942Z,14.80
2017-09-28T01:32:39.500Z,14.80
2017-09-28T01:35:07.060Z,14.90
2017-09-28T01:37:34.620Z,14.70
2017-09-28T01:40:02.202Z,14.80
2017-09-28T01:42:29.769Z,14.70
2017-09-28T01:44:57.357Z,14.70
2017-09-28T01:47:25.684Z,14.50
2017-09-28T01:49:53.250Z,14.50
2017-09-28T01:52:20.830Z,14.60
2017-09-28T01:54:48.387Z,14.40
2017-09-28T01:57:15.946Z,14.30
2017-09-28T01:59:43.498Z,14.30
2017-09-28T02:02:11.055Z,14.40
2017-09-28T02:04:38.637Z,14.20
2017-09-28T02:07:06.194Z,14.20
2017-09-28T02:09:34.543Z,14.20
2017-09-28T02:12:02.101Z,14.20
2017-09-28T02:14:29.658Z,14.10
2017-09-28T02:16:57.238Z,14.10
2017-09-28T02:19:24.800Z,14.20
2017-09-28T02:21:52.368Z,14.30
2017-09-28T02:24:19.924Z,14.20
2017-09-28T02:26:47.478Z,14.20
2017-09-28T02:29:15.067Z,14.10
2017-09-28T02:31:42.631Z,14.10
2017-09-28T02:34:10.192Z,14.20
2017-09-28T02:36:37.752Z,14.20
2017-09-28T02:39:05.310Z,14.10
2017-09-28T02:41:32.890Z,14.20
2017-09-28T02:44:00.453Z,14.10
2017-09-28T02:46:28.018Z,14.00
2017-09-28T02:48:55.583Z,13.90
2017-09-28T02:51:23.141Z,14.10
2017-09-28T02:53:50.742Z,14.10
2017-09-28T02:56:19.065Z,13.90
2017-09-28T02:58:46.629Z,13.90
2017-09-28T03:01:14.187Z,13.90
2017-09-28T03:03:41.746Z,13.90
2017-09-28T03:06:09.327Z,13.90
2017-09-28T03:08:36.880Z,13.80
2017-09-28T03:11:04.475Z,13.50
2017-09-28T03:13:32.798Z,13.40
2017-09-28T03:16:00.358Z,13.40
2017-09-28T03:18:27.942Z,13.40
2017-09-28T03:20:55.494Z,13.30
2017-09-28T03:23:23.056Z,13.20
2017-09-28T03:25:50.614Z,13.20
2017-09-28T03:28:18.169Z,13.30
2017-09-28T03:30:45.766Z,13.50
2017-09-28T03:33:14.086Z,13.40
2017-09-28T03:35:41.642Z,13.40
2017-09-28T03:38:09.199Z,13.50
2017-09-28T03:40:36.759Z,13.50
2017-09-28T03:43:04.337Z,13.40
2017-09-28T03:45:31.920Z,13.50
2017-09-28T03:47:59.483Z,13.30
2017-09-28T03:50:27.819Z,13.30
2017-09-28T03:52:55.392Z,13.30
2017-09-28T03:55:22.974Z,13.30
2017-09-28T03:57:50.525Z,13.30
2017-09-28T04:00:18.078Z,13.10
2017-09-28T04:02:45.632Z,12.90
2017-09-28T04:05:13.186Z,12.60
2017-09-28T04:07:40.770Z,12.60
2017-09-28T04:10:08.356Z,12.80
2017-09-28T04:12:36.694Z,13.10
2017-09-28T04:15:04.250Z,13.10
2017-09-28T04:17:31.818Z,13.20
2017-09-28T04:19:59.405Z,13.20
2017-09-28T04:22:27.721Z,13.00
2017-09-28T04:24:55.282Z,13.00
2017-09-28T04:27:22.841Z,13.00
2017-09-28T04:29:50.411Z,13.00
2017-09-28T04:32:17.992Z,13.10
2017-09-28T04:34:46.325Z,12.80
2017-09-28T04:37:13.889Z,12.80
2017-09-28T04:39:41.461Z,12.70
2017-09-28T04:42:09.015Z,12.70
2017-09-28T04:44:37.003Z,12.70
2017-09-28T04:47:04.566Z,12.80
2017-09-28T04:49:32.126Z,12.90
2017-09-28T04:51:59.678Z,12.80
2017-09-28T04:54:27.233Z,12.80
2017-09-28T04:56:54.813Z,12.70
2017-09-28T04:59:22.370Z,12.50
2017-09-28T05:01:49.922Z,12.50
2017-09-28T05:04:17.482Z,12.70
2017-09-28T05:06:45.042Z,12.80
2017-09-28T05:09:12.631Z,12.70
2017-09-28T05:11:40.202Z,12.60
2017-09-28T05:14:07.758Z,12.60
2017-09-28T05:16:35.317Z,12.60
2017-09-28T05:19:02.873Z,12.70
2017-09-28T05:21:30.486Z,12.80
2017-09-28T05:23:58.042Z,12.90
2017-09-28T05:26:25.594Z,12.70
2017-09-28T05:28:53.151Z,12.70
2017-09-28T05:31:20.785Z,12.60
2017-09-28T05:33:48.353Z,12.30
2017-09-28T05:36:15.918Z,12.30
2017-09-28T05:38:43.486Z,12.60
2017-09-28T05:41:11.043Z,12.40
2017-09-28T05:43:38.761Z,12.40
2017-09-28T05:46:07.098Z,12.60
2017-09-28T05:48:34.654Z,12.60
2017-09-28T05:51:02.246Z,12.80
2017-09-28T05:53:30.566Z,12.60
2017-09-28T05:55:58.120Z,12.50
2017-09-28T05:58:25.704Z,12.60
2017-09-28T06:00:53.275Z,12.80
2017-09-28T06:03:21.177Z,13.20
2017-09-28T06:05:49.847Z,13.40
2017-09-28T06:08:18.170Z,13.40
2017-09-28T06:10:45.941Z,13.40
2017-09-28T06:13:13.526Z,13.60
2017-09-28T06:15:41.431Z,13.60
2017-09-28T06:18:10.113Z,13.50
2017-09-28T06:20:38.430Z,13.50
2017-09-28T06:23:05.982Z,13.50
2017-09-28T06:25:33.559Z,13.30
2017-09-28T06:28:01.175Z,13.30
2017-09-28T06:30:29.006Z,13.50
2017-09-28T06:32:56.566Z,13.80
2017-09-28T06:35:24.136Z,13.90
2017-09-28T06:37:52.486Z,14.10
2017-09-28T06:40:20.318Z,14.10
2017-09-28T06:42:47.884Z,13.90
2017-09-28T06:45:15.444Z,14.20
2017-09-28T06:47:43.003Z,14.50
2017-09-28T06:50:11.716Z,14.60
2017-09-28T06:52:39.561Z,14.50
2017-09-28T06:55:07.118Z,14.40
2017-09-28T06:57:34.862Z,14.40
2017-09-28T07:00:02.715Z,14.40
2017-09-28T07:02:31.070Z,14.50
2017-09-28T07:04:59.591Z,14.80
2017-09-28T07:07:27.458Z,14.70
2017-09-28T07:09:55.179Z,14.90
2017-09-28T07:12:22.778Z,15.10
2017-09-28T07:14:50.381Z,15.40
2017-09-28T07:17:17.937Z,15.60
2017-09-28T07:19:45.502Z,15.70
2017-09-28T07:22:13.053Z,15.80
2017-09-28T07:24:40.610Z,15.80
2017-09-28T07:27:08.198Z,16.10
2017-09-28T07:29:36.521Z,16.40
2017-09-28T07:32:04.075Z,16.40
2017-09-28T07:34:31.630Z,16.60
2017-09-28T07:36:59.193Z,16.60
2017-09-28T07:39:26.782Z,16.80
2017-09-28T07:41:54.347Z,16.90
2017-09-28T07:44:21.914Z,17.00
2017-09-28T07:46:49.470Z,17.00
2017-09-28T07:49:17.031Z,17.10
2017-09-28T07:51:44.630Z,17.30
2017-09-28T07:54:12.193Z,17.50
2017-09-28T07:56:39.750Z,17.70
2017-09-28T07:59:07.306Z,17.80
2017-09-28T08:01:34.861Z,17.80
2017-09-28T08:04:03.050Z,17.80
2017-09-28T08:06:30.600Z,17.90
2017-09-28T08:08:58.163Z,18.00
2017-09-28T08:11:25.722Z,18.00
2017-09-28T08:13:53.277Z,18.20
2017-09-28T08:16:20.858Z,18.40
2017-09-28T08:18:48.410Z,18.40
2017-09-28T08:21:15.976Z,18.60
2017-09-28T08:23:43.534Z,18.60
2017-09-28T08:26:11.087Z,18.50
2017-09-28T08:28:38.690Z,18.70
2017-09-28T08:31:06.254Z,18.90
2017-09-28T08:33:33.814Z,19.00
2017-09-28T08:36:01.369Z,19.20
2017-09-28T08:38:28.937Z,19.40
2017-09-28T08:40:56.530Z,19.50
2017-09-28T08:43:24.087Z,19.60
2017-09-28T08:45:51.645Z,19.80
2017-09-28T08:48:19.210Z,19.80
2017-09-28T08:50:46.772Z,20.00
2017-09-28T08:53:14.361Z,20.20
2017-09-28T08:55:41.915Z,20.20
2017-09-28T08:58:09.466Z,20.20
2017-09-28T09:00:37.021Z,20.30
2017-09-28T09:03:04.590Z,20.50
2017-09-28T09:05:32.169Z,20.50
2017-09-28T09:07:59.730Z,20.80
2017-09-28T09:10:27.290Z,20.90
2017-09-28T09:12:55.622Z,21.20
2017-09-28T09:15:23.238Z,21.20
2017-09-28T09:17:50.825Z,21.40
2017-09-28T09:20:18.383Z,21.40
2017-09-28T09:22:46.705Z,21.50
2017-09-28T09:25:14.262Z,21.50
2017-09-28T09:27:41.814Z,21.70
2017-09-28T09:30:09.409Z,21.70
2017-09-28T09:32:36.982Z,21.90
2017-09-28T09:35:05.300Z,22.00
2017-09-28T09:37:32.859Z,21.90
2017-09-28T09:40:00.420Z,22.10
2017-09-28T09:42:28.003Z,22.30
2017-09-28T09:44:55.570Z,22.50
2017-09-28T09:47:23.123Z,22.60
2017-09-28T09:49:50.681Z,22.80
2017-09-28T09:52:18.234Z,23.00
2017-09-28T09:54:45.816Z,23.20
2017-09-28T09:57:13.374Z,23.40
2017-09-28T09:59:40.930Z,23.70
2017-09-28T10:02:08.491Z,24.10
2017-09-28T10:04:36.053Z,24.70
2017-09-28T10:07:15.665Z,25.40
2017-09-28T10:09:49.829Z,26.10
2017-09-28T10:12:26.226Z,28.20
2017-09-28T10:15:02.019Z,28.20
2017-09-28T10:17:29.608Z,29.90
2017-09-28T10:19:57.929Z,33.20
2017-09-28T10:22:25.486Z,33.10
2017-09-28T10:24:53.042Z,34.40
2017-09-28T10:27:20.647Z,35.60
2017-09-28T10:29:49.006Z,37.70
2017-09-28T10:32:16.565Z,37.70
2017-09-28T10:34:44.123Z,38.90
2017-09-28T10:37:11.686Z,39.90
2017-09-28T10:39:39.244Z,40.20
2017-09-28T10:42:06.830Z,40.60
2017-09-28T10:44:35.154Z,41.50
2017-09-28T10:47:02.714Z,41.40
2017-09-28T10:49:30.271Z,42.10
2017-09-28T10:51:57.831Z,42.40
2017-09-28T10:54:25.427Z,42.80
2017-09-28T10:56:53.040Z,43.40
2017-09-28T10:59:20.594Z,43.70
2017-09-28T11:01:48.152Z,43.90
2017-09-28T11:04:15.713Z,43.80
2017-09-28T11:06:43.305Z,43.90
2017-09-28T11:09:10.864Z,44.00
2017-09-28T11:11:38.423Z,44.60
2017-09-28T11:14:05.979Z,44.80
2017-09-28T11:16:33.731Z,44.80
2017-09-28T11:19:01.314Z,44.90
2017-09-28T11:21:28.874Z,44.70
2017-09-28T11:23:56.434Z,45.30
2017-09-28T11:26:23.994Z,45.70
2017-09-28T11:28:51.550Z,45.60
2017-09-28T11:31:19.137Z,45.40
2017-09-28T11:33:47.481Z,45.80
2017-09-28T11:36:15.037Z,45.70
2017-09-28T11:38:42.866Z,45.90
2017-09-28T11:41:10.674Z,46.10
2017-09-28T11:43:38.326Z,45.80
2017-09-28T11:46:05.974Z,45.50
2017-09-28T11:48:33.806Z,46.00
2017-09-28T11:51:01.365Z,46.70
2017-09-28T11:53:28.933Z,46.60
2017-09-28T11:55:56.523Z,47.40
2017-09-28T11:58:24.078Z,47.70
2017-09-28T12:00:51.947Z,47.70
2017-09-28T12:03:19.581Z,47.70
2017-09-28T12:05:47.443Z,47.50
2017-09-28T12:08:15.239Z,46.40
2017-09-28T12:10:43.074Z,45.80
2017-09-28T12:13:10.627Z,45.10
2017-09-28T12:15:39.450Z,44.80
2017-09-28T12:18:07.012Z,44.70
2017-09-28T12:20:35.131Z,44.80
2017-09-28T12:23:03.462Z,46.40
2017-09-28T12:25:31.464Z,46.40
2017-09-28T12:27:59.387Z,47.00
2017-09-28T12:30:27.302Z,47.30
2017-09-28T12:32:55.010Z,47.70
2017-09-28T12:35:23.137Z,48.00
2017-09-28T12:37:50.961Z,47.90
2017-09-28T12:40:19.023Z,47.50
2017-09-28T12:42:46.902Z,47.30
2017-09-28T12:45:15.091Z,47.80
2017-09-28T12:47:42.836Z,48.10
2017-09-28T12:50:10.646Z,48.50
2017-09-28T12:52:39.757Z,49.90
2017-09-28T12:55:08.414Z,50.30
2017-09-28T12:57:35.998Z,50.30
2017-09-28T13:00:04.318Z,49.60
2017-09-28T13:02:31.879Z,49.60
2017-09-28T13:04:59.435Z,49.30
2017-09-28T13:07:26.994Z,49.20
2017-09-28T13:09:54.588Z,49.00
2017-09-28T13:12:22.146Z,48.70
2017-09-28T13:14:49.730Z,48.30
2017-09-28T13:17:18.059Z,48.20
2017-09-28T13:19:45.623Z,48.10
2017-09-28T13:22:13.185Z,48.00
2017-09-28T13:24:40.743Z,47.80
2017-09-28T13:27:08.326Z,47.40
2017-09-28T13:29:35.887Z,47.10
2017-09-28T13:32:03.442Z,47.10
2017-09-28T13:34:31.022Z,47.10
2017-09-28T13:36:59.414Z,46.20
2017-09-28T13:39:27.772Z,45.70
2017-09-28T13:41:55.326Z,45.70
2017-09-28T13:44:22.906Z,46.00
2017-09-28T13:46:51.237Z,46.00
2017-09-28T13:49:18.797Z,46.00
2017-09-28T13:51:46.382Z,46.10
2017-09-28T13:54:13.938Z,45.90
2017-09-28T13:56:41.496Z,45.70
2017-09-28T13:59:09.331Z,45.50
2017-09-28T14:01:41.274Z,45.50
2017-09-28T14:04:09.054Z,45.40
2017-09-28T14:06:36.640Z,45.00
2017-09-28T14:09:04.962Z,43.20
2017-09-28T14:11:32.523Z,43.10
2017-09-28T14:14:00.210Z,42.90
2017-09-28T14:16:27.962Z,43.10
2017-09-28T14:18:56.134Z,43.20
2017-09-28T14:21:24.035Z,43.20
2017-09-28T14:23:51.601Z,42.30
2017-09-28T14:26:19.161Z,41.60
2017-09-28T14:28:46.822Z,41.30
2017-09-28T14:31:14.386Z,41.30
2017-09-28T14:33:42.246Z,41.10
2017-09-28T14:36:10.275Z,41.10
2017-09-28T14:38:37.829Z,40.90
2017-09-28T14:41:05.434Z,40.80
2017-09-28T14:43:32.995Z,40.60
2017-09-28T14:46:01.608Z,40.40
2017-09-28T14:48:30.000Z,40.30
2017-09-28T14:50:57.925Z,40.30
2017-09-28T14:53:26.050Z,40.30
2017-09-28T14:55:53.630Z,40.20
2017-09-28T14:58:22.577Z,39.40
2017-09-28T15:00:50.919Z,38.70
2017-09-28T15:03:18.626Z,38.70
2017-09-28T15:05:47.009Z,38.40
2017-09-28T15:08:15.350Z,38.00
2017-09-28T15:10:43.047Z,37.90
2017-09-28T15:13:11.374Z,36.50
2017-09-28T15:15:39.343Z,36.50
2017-09-28T15:18:07.466Z,36.50
2017-09-28T15:20:35.339Z,36.50
2017-09-28T15:23:03.338Z,35.50
2017-09-28T15:25:31.242Z,34.70
2017-09-28T15:27:58.945Z,33.80
2017-09-28T15:30:26.917Z,33.00
2017-09-28T15:32:54.889Z,32.10
2017-09-28T15:35:22.452Z,31.40
2017-09-28T15:37:50.012Z,30.70
2017-09-28T15:40:17.575Z,29.90
2017-09-28T15:42:45.171Z,29.40
2017-09-28T15:45:12.733Z,28.80
2017-09-28T15:47:40.296Z,28.10
2017-09-28T15:50:07.858Z,27.70
2017-09-28T15:52:35.442Z,27.30
2017-09-28T15:55:03.978Z,26.90
2017-09-28T15:57:31.538Z,26.80
2017-09-28T15:59:59.094Z,26.70
2017-09-28T16:02:26.666Z,26.50
2017-09-28T16:04:54.230Z,26.20
2017-09-28T16:07:21.938Z,25.90
2017-09-28T16:09:49.491Z,25.90
2017-09-28T16:12:17.061Z,25.50
2017-09-28T16:14:44.628Z,25.40
2017-09-28T16:17:12.189Z,25.20
2017-09-28T16:19:39.782Z,25.10
2017-09-28T16:22:07.341Z,24.90
2017-09-28T16:24:34.913Z,24.70
2017-09-28T16:27:02.467Z,24.30
2017-09-28T16:29:30.027Z,24.20
2017-09-28T16:31:57.610Z,24.00
2017-09-28T16:34:25.935Z,23.60
2017-09-28T16:36:53.491Z,23.60
2017-09-28T16:39:21.045Z,23.50
2017-09-28T16:41:48.606Z,23.40
2017-09-28T16:44:16.186Z,23.30
2017-09-28T16:46:43.763Z,23.20
2017-09-28T16:49:11.322Z,23.20
2017-09-28T16:51:38.874Z,23.20
2017-09-28T16:54:06.445Z,23.10
2017-09-28T16:56:34.837Z,22.90
2017-09-28T16:59:03.158Z,23.00
2017-09-28T17:01:30.743Z,23.00
2017-09-28T17:03:58.313Z,22.90
2017-09-28T17:06:26.646Z,23.00
2017-09-28T17:08:54.241Z,23.00
2017-09-28T17:11:21.803Z,22.80
2017-09-28T17:13:50.134Z,22.10
2017-09-28T17:16:17.697Z,22.10
2017-09-28T17:18:45.256Z,21.90
2017-09-28T17:21:12.867Z,21.70
2017-09-28T17:23:40.434Z,21.60
2017-09-28T17:26:08.761Z,21.70
2017-09-28T17:28:36.328Z,21.60
2017-09-28T17:31:03.882Z,21.50
2017-09-28T17:33:31.462Z,21.30
2017-09-28T17:35:59.017Z,21.30
2017-09-28T17:38:26.577Z,21.20
2017-09-28T17:40:54.138Z,20.80
2017-09-28T17:43:21.698Z,21.00
2017-09-28T17:45:49.294Z,21.00
2017-09-28T17:48:17.614Z,20.90
2017-09-28T17:50:45.171Z,20.90
2017-09-28T17:53:12.736Z,21.00
2017-09-28T17:55:40.290Z,20.90
2017-09-28T17:58:07.874Z,20.80
2017-09-28T18:00:35.429Z,20.50
2017-09-28T18:03:03.023Z,20.50
2017-09-28T18:05:31.346Z,20.70
2017-09-28T18:07:58.910Z,20.70
2017-09-28T18:10:26.516Z,20.70
2017-09-28T18:12:54.838Z,20.60
2017-09-28T18:15:22.406Z,20.60
2017-09-28T18:17:49.967Z,20.50
2017-09-28T18:20:17.527Z,20.50
2017-09-28T18:22:45.111Z,20.30
2017-09-28T18:25:12.665Z,20.30
2017-09-28T18:27:40.228Z,20.20
2017-09-28T18:30:07.786Z,20.10
2017-09-28T18:32:35.351Z,20.20
2017-09-28T18:35:02.951Z,20.10
2017-09-28T18:37:30.510Z,19.90
2017-09-28T18:39:58.062Z,19.80
2017-09-28T18:42:25.622Z,19.60
2017-09-28T18:44:53.188Z,19.50
2017-09-28T18:47:20.774Z,19.30
2017-09-28T18:49:49.118Z,19.30
2017-09-28T18:52:16.678Z,19.30
2017-09-28T18:54:44.239Z,19.30
2017-09-28T18:57:11.815Z,19.10
2017-09-28T18:59:39.403Z,19.20
2017-09-28T19:02:06.959Z,19.10
2017-09-28T19:04:34.554Z,19.10
2017-09-28T19:07:02.887Z,18.90
2017-09-28T19:09:30.450Z,18.80
2017-09-28T19:11:58.033Z,18.70
2017-09-28T19:14:25.586Z,18.70
2017-09-28T19:16:53.147Z,18.70
2017-09-28T19:19:20.715Z,18.70
2017-09-28T19:21:49.045Z,18.60
2017-09-28T19:24:16.631Z,18.60
2017-09-28T19:26:44.190Z,18.70
2017-09-28T19:29:12.513Z,18.70
2017-09-28T19:31:40.079Z,18.70
2017-09-28T19:34:07.642Z,18.40
2017-09-28T19:36:35.232Z,18.60
2017-09-28T19:39:02.793Z,18.60
2017-09-28T19:41:30.350Z,18.80
2017-09-28T19:43:57.906Z,18.50
2017-09-28T19:46:25.465Z,18.60
2017-09-28T19:48:53.042Z,18.70
2017-09-28T19:51:20.611Z,18.70
2017-09-28T19:53:48.166Z,18.70
2017-09-28T19:56:15.730Z,18.70
2017-09-28T19:58:43.331Z,18.60
2017-09-28T20:01:10.911Z,18.70
2017-09-28T20:03:38.494Z,18.80
2017-09-28T20:06:06.062Z,18.80
2017-09-28T20:08:33.628Z,18.90
2017-09-28T20:11:01.186Z,18.80
2017-09-28T20:13:28.778Z,18.70
2017-09-28T20:15:56.338Z,18.70
2017-09-28T20:18:23.889Z,18.50
2017-09-28T20:20:52.209Z,18.40
2017-09-28T20:23:19.774Z,18.40
2017-09-28T20:25:47.366Z,18.20
2017-09-28T20:28:15.692Z,18.10
2017-09-28T20:30:43.247Z,18.10
2017-09-28T20:33:10.816Z,18.20
2017-09-28T20:35:38.382Z,18.00
2017-09-28T20:38:05.970Z,18.10
2017-09-28T20:40:33.527Z,18.10
2017-09-28T20:43:01.086Z,18.10
2017-09-28T20:45:28.644Z,18.20
2017-09-28T20:47:56.202Z,18.00
2017-09-28T20:50:23.793Z,17.90
2017-09-28T20:52:51.359Z,17.60
2017-09-28T20:55:18.909Z,17.60
2017-09-28T20:57:47.226Z,17.80
2017-09-28T21:00:14.779Z,17.80
2017-09-28T21:02:42.359Z,17.50
2017-09-28T21:05:09.954Z,17.60
2017-09-28T21:07:38.292Z,17.10
2017-09-28T21:10:05.850Z,17.10
2017-09-28T21:12:33.415Z,17.10
2017-09-28T21:15:00.993Z,16.90
2017-09-28T21:17:28.554Z,16.90
2017-09-28T21:19:56.110Z,17.10
2017-09-28T21:22:23.670Z,17.10
2017-09-28T21:24:51.226Z,17.10
2017-09-28T21:27:18.811Z,17.10
2017-09-28T21:29:47.135Z,17.10
2017-09-28T21:32:14.694Z,17.10
2017-09-28T21:34:42.258Z,17.00
2017-09-28T21:37:09.818Z,17.10
2017-09-28T21:39:37.398Z,17.30
2017-09-28T21:42:04.949Z,17.10
2017-09-28T21:44:32.501Z,17.00
2017-09-28T21:47:00.062Z,17.10
2017-09-28T21:49:27.722Z,17.00
2017-09-28T21:51:55.284Z,16.90
2017-09-28T21:54:22.880Z,16.80
2017-09-28T21:56:51.206Z,17.00
2017-09-28T21:59:18.770Z,16.90
2017-09-28T22:01:46.327Z,17.00
2017-09-28T22:04:13.882Z,17.20
2017-09-28T22:06:41.465Z,17.30
2017-09-28T22:09:09.019Z,17.20
2017-09-28T22:11:36.585Z,17.20
2017-09-28T22:14:04.141Z,17.30
2017-09-28T22:16:31.707Z,17.10
2017-09-28T22:18:59.297Z,16.80
2017-09-28T22:21:26.855Z,16.80
2017-09-28T22:23:54.419Z,16.60
2017-09-28T22:26:21.974Z,16.60
2017-09-28T22:28:49.533Z,16.60
2017-09-28T22:31:17.123Z,16.40
2017-09-28T22:33:44.677Z,16.40
2017-09-28T22:36:12.234Z,16.40
2017-09-28T22:38:39.791Z,16.30
2017-09-28T22:41:07.352Z,16.30
2017-09-28T22:43:34.934Z,16.30
2017-09-28T22:46:02.497Z,16.40
2017-09-28T22:48:30.046Z,16.50
2017-09-28T22:50:57.609Z,16.40
2017-09-28T22:53:25.182Z,16.40
2017-09-28T22:55:52.770Z,16.50
2017-09-28T22:58:21.098Z,16.50
2017-09-28T23:00:48.661Z,16.50
2017-09-28T23:03:16.219Z,16.60
2017-09-28T23:05:43.780Z,16.40
2017-09-28T23:37:03.989Z,16.00
2017-09-28T23:39:32.309Z,15.70
2017-09-28T23:41:59.869Z,15.70
2017-09-28T23:44:27.427Z,15.60
2017-09-28T23:46:54.987Z,15.70
2017-09-28T23:49:22.578Z,15.80
2017-09-28T23:51:50.134Z,15.80
2017-09-28T23:54:17.690Z,15.90
2017-09-28T23:56:45.355Z,15.70
2017-09-28T23:59:12.914Z,15.90
